sensor_id;sensor_type;location;lat;lon;timestamp;P1;durP1;ratioP1;P2;durP2;ratioP2
781;SDS011;374;52.568;13.402;2024-01-07T00:01:52;7.57;;;5.27;;
781;SDS011;374;52.568;13.402;2024-01-07T00:04:17;5.10;;;4.57;;
781;SDS011;374;52.568;13.402;2024-01-07T00:06:43;8.67;;;6.07;;
781;SDS011;374;52.568;13.402;2024-01-07T00:09:14;8.00;;;5.90;;
781;SDS011;374;52.568;13.402;2024-01-07T00:11:43;8.77;;;5.90;;
781;SDS011;374;52.568;13.402;2024-01-07T00:14:09;8.37;;;5.07;;
781;SDS011;374;52.568;13.402;2024-01-07T00:16:34;8.17;;;6.40;;
781;SDS011;374;52.568;13.402;2024-01-07T00:19:00;9.03;;;5.80;;
781;SDS011;374;52.568;13.402;2024-01-07T00:21:25;6.97;;;4.90;;
781;SDS011;374;52.568;13.402;2024-01-07T00:23:51;7.97;;;4.90;;
781;SDS011;374;52.568;13.402;2024-01-07T00:26:19;6.83;;;5.40;;
781;SDS011;374;52.568;13.402;2024-01-07T00:28:44;6.37;;;5.30;;
781;SDS011;374;52.568;13.402;2024-01-07T00:31:11;5.63;;;4.40;;
781;SDS011;374;52.568;13.402;2024-01-07T00:33:40;6.60;;;4.80;;
781;SDS011;374;52.568;13.402;2024-01-07T00:36:16;6.97;;;5.83;;
781;SDS011;374;52.568;13.402;2024-01-07T00:38:41;8.77;;;4.37;;
781;SDS011;374;52.568;13.402;2024-01-07T00:41:10;6.03;;;4.70;;
781;SDS011;374;52.568;13.402;2024-01-07T00:43:35;6.57;;;4.30;;
781;SDS011;374;52.568;13.402;2024-01-07T00:46:03;6.13;;;4.43;;
781;SDS011;374;52.568;13.402;2024-01-07T00:48:29;4.40;;;3.80;;
781;SDS011;374;52.568;13.402;2024-01-07T00:51:03;5.93;;;4.07;;
781;SDS011;374;52.568;13.402;2024-01-07T00:53:29;10.00;;;4.30;;
781;SDS011;374;52.568;13.402;2024-01-07T00:55:54;4.80;;;4.27;;
781;SDS011;374;52.568;13.402;2024-01-07T00:58:20;4.40;;;3.70;;
781;SDS011;374;52.568;13.402;2024-01-07T01:00:45;6.60;;;4.30;;
781;SDS011;374;52.568;13.402;2024-01-07T01:03:11;5.50;;;3.87;;
781;SDS011;374;52.568;13.402;2024-01-07T01:05:36;6.63;;;4.47;;
781;SDS011;374;52.568;13.402;2024-01-07T01:08:01;4.90;;;3.70;;
781;SDS011;374;52.568;13.402;2024-01-07T01:10:27;5.33;;;3.60;;
781;SDS011;374;52.568;13.402;2024-01-07T01:12:52;4.57;;;3.43;;
781;SDS011;374;52.568;13.402;2024-01-07T01:15:19;5.00;;;4.00;;
781;SDS011;374;52.568;13.402;2024-01-07T01:17:44;5.20;;;3.57;;
781;SDS011;374;52.568;13.402;2024-01-07T01:20:10;5.90;;;3.50;;
781;SDS011;374;52.568;13.402;2024-01-07T01:22:36;5.13;;;3.60;;
781;SDS011;374;52.568;13.402;2024-01-07T01:25:01;6.73;;;3.90;;
781;SDS011;374;52.568;13.402;2024-01-07T01:27:28;5.83;;;3.87;;
781;SDS011;374;52.568;13.402;2024-01-07T01:29:53;4.50;;;4.00;;
781;SDS011;374;52.568;13.402;2024-01-07T01:32:19;5.67;;;4.10;;
781;SDS011;374;52.568;13.402;2024-01-07T01:34:44;4.83;;;3.80;;
781;SDS011;374;52.568;13.402;2024-01-07T01:37:10;4.73;;;3.80;;
781;SDS011;374;52.568;13.402;2024-01-07T01:39:35;5.70;;;4.00;;
781;SDS011;374;52.568;13.402;2024-01-07T01:42:01;8.60;;;4.60;;
781;SDS011;374;52.568;13.402;2024-01-07T01:44:27;7.57;;;4.00;;
781;SDS011;374;52.568;13.402;2024-01-07T01:46:53;6.63;;;4.40;;
781;SDS011;374;52.568;13.402;2024-01-07T01:49:20;3.43;;;3.13;;
781;SDS011;374;52.568;13.402;2024-01-07T01:51:46;5.73;;;4.00;;
781;SDS011;374;52.568;13.402;2024-01-07T01:54:12;5.03;;;3.33;;
781;SDS011;374;52.568;13.402;2024-01-07T01:56:37;6.60;;;3.93;;
781;SDS011;374;52.568;13.402;2024-01-07T01:59:03;5.13;;;4.10;;
781;SDS011;374;52.568;13.402;2024-01-07T02:01:29;5.50;;;4.00;;
781;SDS011;374;52.568;13.402;2024-01-07T02:03:56;5.63;;;4.47;;
781;SDS011;374;52.568;13.402;2024-01-07T02:06:22;11.03;;;4.07;;
781;SDS011;374;52.568;13.402;2024-01-07T02:08:48;6.27;;;4.33;;
781;SDS011;374;52.568;13.402;2024-01-07T02:11:18;7.30;;;4.30;;
781;SDS011;374;52.568;13.402;2024-01-07T02:13:44;5.40;;;4.20;;
781;SDS011;374;52.568;13.402;2024-01-07T02:16:10;4.33;;;3.93;;
781;SDS011;374;52.568;13.402;2024-01-07T02:18:36;4.90;;;3.87;;
781;SDS011;374;52.568;13.402;2024-01-07T02:21:03;6.67;;;4.00;;
781;SDS011;374;52.568;13.402;2024-01-07T02:23:28;9.27;;;4.40;;
781;SDS011;374;52.568;13.402;2024-01-07T02:25:54;4.97;;;4.00;;
781;SDS011;374;52.568;13.402;2024-01-07T02:28:19;4.77;;;4.07;;
781;SDS011;374;52.568;13.402;2024-01-07T02:30:45;4.57;;;3.73;;
781;SDS011;374;52.568;13.402;2024-01-07T02:33:10;6.40;;;4.70;;
781;SDS011;374;52.568;13.402;2024-01-07T02:35:35;6.07;;;3.90;;
781;SDS011;374;52.568;13.402;2024-01-07T02:38:01;5.13;;;3.50;;
781;SDS011;374;52.568;13.402;2024-01-07T02:40:26;8.50;;;3.77;;
781;SDS011;374;52.568;13.402;2024-01-07T02:42:52;4.30;;;3.63;;
781;SDS011;374;52.568;13.402;2024-01-07T02:45:17;3.97;;;3.60;;
781;SDS011;374;52.568;13.402;2024-01-07T02:47:43;4.87;;;3.67;;
781;SDS011;374;52.568;13.402;2024-01-07T02:50:09;4.93;;;3.23;;
781;SDS011;374;52.568;13.402;2024-01-07T02:52:34;6.80;;;2.87;;
781;SDS011;374;52.568;13.402;2024-01-07T02:55:00;4.33;;;3.37;;
781;SDS011;374;52.568;13.402;2024-01-07T02:57:26;4.30;;;3.13;;
781;SDS011;374;52.568;13.402;2024-01-07T02:59:52;3.10;;;2.73;;
781;SDS011;374;52.568;13.402;2024-01-07T03:02:17;3.50;;;3.20;;
781;SDS011;374;52.568;13.402;2024-01-07T03:04:43;4.03;;;3.50;;
781;SDS011;374;52.568;13.402;2024-01-07T03:07:08;4.40;;;3.20;;
781;SDS011;374;52.568;13.402;2024-01-07T03:09:34;3.47;;;2.80;;
781;SDS011;374;52.568;13.402;2024-01-07T03:11:59;4.27;;;3.13;;
781;SDS011;374;52.568;13.402;2024-01-07T03:14:25;2.80;;;2.63;;
781;SDS011;374;52.568;13.402;2024-01-07T03:16:51;3.77;;;2.80;;
781;SDS011;374;52.568;13.402;2024-01-07T03:19:17;4.47;;;2.77;;
781;SDS011;374;52.568;13.402;2024-01-07T03:21:43;5.53;;;2.77;;
781;SDS011;374;52.568;13.402;2024-01-07T03:24:08;2.53;;;2.33;;
781;SDS011;374;52.568;13.402;2024-01-07T03:26:34;2.67;;;2.47;;
781;SDS011;374;52.568;13.402;2024-01-07T03:28:59;3.17;;;2.87;;
781;SDS011;374;52.568;13.402;2024-01-07T03:31:25;3.63;;;3.03;;
781;SDS011;374;52.568;13.402;2024-01-07T03:33:51;4.20;;;3.10;;
781;SDS011;374;52.568;13.402;2024-01-07T03:36:17;3.07;;;2.77;;
781;SDS011;374;52.568;13.402;2024-01-07T03:38:42;3.80;;;2.67;;
781;SDS011;374;52.568;13.402;2024-01-07T03:41:08;3.30;;;3.00;;
781;SDS011;374;52.568;13.402;2024-01-07T03:43:33;2.77;;;2.47;;
781;SDS011;374;52.568;13.402;2024-01-07T03:45:59;3.33;;;3.00;;
781;SDS011;374;52.568;13.402;2024-01-07T03:48:25;3.80;;;3.03;;
781;SDS011;374;52.568;13.402;2024-01-07T03:50:51;3.07;;;2.77;;
781;SDS011;374;52.568;13.402;2024-01-07T03:53:17;2.70;;;2.50;;
781;SDS011;374;52.568;13.402;2024-01-07T03:55:42;4.70;;;3.57;;
781;SDS011;374;52.568;13.402;2024-01-07T03:58:08;4.43;;;2.67;;
781;SDS011;374;52.568;13.402;2024-01-07T04:00:34;5.33;;;3.77;;
781;SDS011;374;52.568;13.402;2024-01-07T04:03:00;2.97;;;2.67;;
781;SDS011;374;52.568;13.402;2024-01-07T04:05:26;3.40;;;2.87;;
781;SDS011;374;52.568;13.402;2024-01-07T04:07:51;3.33;;;3.03;;
781;SDS011;374;52.568;13.402;2024-01-07T04:10:17;3.17;;;2.87;;
781;SDS011;374;52.568;13.402;2024-01-07T04:12:43;2.80;;;2.37;;
781;SDS011;374;52.568;13.402;2024-01-07T04:15:09;4.60;;;3.33;;
781;SDS011;374;52.568;13.402;2024-01-07T04:17:35;3.97;;;3.07;;
781;SDS011;374;52.568;13.402;2024-01-07T04:20:00;2.73;;;2.53;;
781;SDS011;374;52.568;13.402;2024-01-07T04:22:26;3.27;;;3.03;;
781;SDS011;374;52.568;13.402;2024-01-07T04:24:51;5.07;;;3.27;;
781;SDS011;374;52.568;13.402;2024-01-07T04:27:17;3.90;;;3.00;;
781;SDS011;374;52.568;13.402;2024-01-07T04:29:42;3.40;;;3.10;;
781;SDS011;374;52.568;13.402;2024-01-07T04:32:08;4.23;;;3.03;;
781;SDS011;374;52.568;13.402;2024-01-07T04:34:33;3.77;;;2.40;;
781;SDS011;374;52.568;13.402;2024-01-07T04:36:59;4.17;;;2.93;;
781;SDS011;374;52.568;13.402;2024-01-07T04:39:24;4.40;;;3.13;;
781;SDS011;374;52.568;13.402;2024-01-07T04:41:50;3.20;;;2.90;;
781;SDS011;374;52.568;13.402;2024-01-07T04:44:16;3.83;;;3.07;;
781;SDS011;374;52.568;13.402;2024-01-07T04:46:41;4.47;;;2.60;;
781;SDS011;374;52.568;13.402;2024-01-07T04:49:07;3.73;;;3.13;;
781;SDS011;374;52.568;13.402;2024-01-07T04:51:33;5.80;;;3.10;;
781;SDS011;374;52.568;13.402;2024-01-07T04:53:58;4.17;;;3.13;;
781;SDS011;374;52.568;13.402;2024-01-07T04:56:24;3.47;;;3.07;;
781;SDS011;374;52.568;13.402;2024-01-07T04:58:49;5.00;;;3.50;;
781;SDS011;374;52.568;13.402;2024-01-07T05:01:15;4.80;;;3.77;;
781;SDS011;374;52.568;13.402;2024-01-07T05:03:40;3.17;;;2.77;;
781;SDS011;374;52.568;13.402;2024-01-07T05:06:09;4.77;;;3.27;;
781;SDS011;374;52.568;13.402;2024-01-07T05:08:39;4.00;;;3.50;;
781;SDS011;374;52.568;13.402;2024-01-07T05:11:05;5.37;;;4.00;;
781;SDS011;374;52.568;13.402;2024-01-07T05:13:31;4.40;;;3.30;;
781;SDS011;374;52.568;13.402;2024-01-07T05:15:56;3.63;;;3.30;;
781;SDS011;374;52.568;13.402;2024-01-07T05:18:22;4.40;;;2.90;;
781;SDS011;374;52.568;13.402;2024-01-07T05:20:48;3.53;;;3.23;;
781;SDS011;374;52.568;13.402;2024-01-07T05:23:15;3.47;;;3.17;;
781;SDS011;374;52.568;13.402;2024-01-07T05:25:44;4.83;;;3.57;;
781;SDS011;374;52.568;13.402;2024-01-07T05:28:10;5.50;;;3.30;;
781;SDS011;374;52.568;13.402;2024-01-07T05:30:36;3.97;;;3.53;;
781;SDS011;374;52.568;13.402;2024-01-07T05:33:02;3.10;;;2.70;;
781;SDS011;374;52.568;13.402;2024-01-07T05:35:28;3.07;;;2.83;;
781;SDS011;374;52.568;13.402;2024-01-07T05:37:53;3.17;;;2.80;;
781;SDS011;374;52.568;13.402;2024-01-07T05:40:19;3.73;;;3.20;;
781;SDS011;374;52.568;13.402;2024-01-07T05:42:44;3.97;;;3.33;;
781;SDS011;374;52.568;13.402;2024-01-07T05:45:10;3.33;;;3.03;;
781;SDS011;374;52.568;13.402;2024-01-07T05:47:35;3.40;;;3.10;;
781;SDS011;374;52.568;13.402;2024-01-07T05:50:01;3.73;;;3.43;;
781;SDS011;374;52.568;13.402;2024-01-07T05:52:27;4.37;;;3.70;;
781;SDS011;374;52.568;13.402;2024-01-07T05:54:52;4.27;;;3.80;;
781;SDS011;374;52.568;13.402;2024-01-07T05:57:18;4.57;;;3.10;;
781;SDS011;374;52.568;13.402;2024-01-07T05:59:44;4.17;;;3.63;;
781;SDS011;374;52.568;13.402;2024-01-07T06:02:09;5.20;;;3.70;;
781;SDS011;374;52.568;13.402;2024-01-07T06:04:36;5.07;;;3.50;;
781;SDS011;374;52.568;13.402;2024-01-07T06:07:02;4.73;;;3.10;;
781;SDS011;374;52.568;13.402;2024-01-07T06:09:28;5.53;;;3.47;;
781;SDS011;374;52.568;13.402;2024-01-07T06:11:53;6.37;;;3.17;;
781;SDS011;374;52.568;13.402;2024-01-07T06:14:19;4.57;;;3.60;;
781;SDS011;374;52.568;13.402;2024-01-07T06:16:44;2.97;;;2.67;;
781;SDS011;374;52.568;13.402;2024-01-07T06:19:10;4.60;;;3.90;;
781;SDS011;374;52.568;13.402;2024-01-07T06:21:35;4.97;;;3.47;;
781;SDS011;374;52.568;13.402;2024-01-07T06:24:01;6.47;;;4.03;;
781;SDS011;374;52.568;13.402;2024-01-07T06:26:26;4.67;;;3.60;;
781;SDS011;374;52.568;13.402;2024-01-07T06:28:52;3.40;;;3.10;;
781;SDS011;374;52.568;13.402;2024-01-07T06:31:17;4.40;;;3.10;;
781;SDS011;374;52.568;13.402;2024-01-07T06:33:43;4.53;;;3.87;;
781;SDS011;374;52.568;13.402;2024-01-07T06:36:08;6.53;;;3.60;;
781;SDS011;374;52.568;13.402;2024-01-07T06:38:34;4.90;;;3.50;;
781;SDS011;374;52.568;13.402;2024-01-07T06:40:59;4.10;;;3.70;;
781;SDS011;374;52.568;13.402;2024-01-07T06:43:28;4.70;;;3.47;;
781;SDS011;374;52.568;13.402;2024-01-07T06:45:54;4.00;;;3.43;;
781;SDS011;374;52.568;13.402;2024-01-07T06:48:20;5.47;;;4.17;;
781;SDS011;374;52.568;13.402;2024-01-07T06:50:45;4.50;;;2.87;;
781;SDS011;374;52.568;13.402;2024-01-07T06:53:10;6.53;;;3.73;;
781;SDS011;374;52.568;13.402;2024-01-07T06:55:36;4.30;;;3.83;;
781;SDS011;374;52.568;13.402;2024-01-07T06:58:01;6.70;;;4.00;;
781;SDS011;374;52.568;13.402;2024-01-07T07:00:27;4.70;;;3.60;;
781;SDS011;374;52.568;13.402;2024-01-07T07:02:53;4.93;;;3.37;;
781;SDS011;374;52.568;13.402;2024-01-07T07:05:18;6.70;;;3.50;;
781;SDS011;374;52.568;13.402;2024-01-07T07:07:44;4.63;;;4.23;;
781;SDS011;374;52.568;13.402;2024-01-07T07:10:10;7.23;;;4.27;;
781;SDS011;374;52.568;13.402;2024-01-07T07:12:36;5.67;;;4.37;;
781;SDS011;374;52.568;13.402;2024-01-07T07:15:01;5.80;;;4.20;;
781;SDS011;374;52.568;13.402;2024-01-07T07:17:27;4.60;;;4.00;;
781;SDS011;374;52.568;13.402;2024-01-07T07:19:52;6.50;;;4.47;;
781;SDS011;374;52.568;13.402;2024-01-07T07:22:18;8.50;;;4.03;;
781;SDS011;374;52.568;13.402;2024-01-07T07:24:43;5.40;;;3.50;;
781;SDS011;374;52.568;13.402;2024-01-07T07:27:09;6.43;;;3.80;;
781;SDS011;374;52.568;13.402;2024-01-07T07:29:34;3.77;;;3.13;;
781;SDS011;374;52.568;13.402;2024-01-07T07:32:00;5.03;;;3.77;;
781;SDS011;374;52.568;13.402;2024-01-07T07:34:25;7.20;;;5.23;;
781;SDS011;374;52.568;13.402;2024-01-07T07:36:51;3.73;;;3.43;;
781;SDS011;374;52.568;13.402;2024-01-07T07:39:16;7.17;;;3.93;;
781;SDS011;374;52.568;13.402;2024-01-07T07:41:42;4.60;;;3.40;;
781;SDS011;374;52.568;13.402;2024-01-07T07:44:10;6.97;;;3.73;;
781;SDS011;374;52.568;13.402;2024-01-07T07:46:36;4.60;;;4.10;;
781;SDS011;374;52.568;13.402;2024-01-07T07:49:01;5.87;;;2.97;;
781;SDS011;374;52.568;13.402;2024-01-07T07:51:27;5.07;;;3.53;;
781;SDS011;374;52.568;13.402;2024-01-07T07:53:53;4.60;;;3.83;;
781;SDS011;374;52.568;13.402;2024-01-07T07:56:18;3.77;;;3.50;;
781;SDS011;374;52.568;13.402;2024-01-07T07:58:44;6.27;;;4.37;;
781;SDS011;374;52.568;13.402;2024-01-07T08:01:09;5.20;;;3.80;;
781;SDS011;374;52.568;13.402;2024-01-07T08:03:40;6.03;;;4.43;;
781;SDS011;374;52.568;13.402;2024-01-07T08:06:06;6.33;;;3.70;;
781;SDS011;374;52.568;13.402;2024-01-07T08:08:32;3.90;;;3.53;;
781;SDS011;374;52.568;13.402;2024-01-07T08:10:57;5.30;;;3.70;;
781;SDS011;374;52.568;13.402;2024-01-07T08:13:23;3.60;;;3.30;;
781;SDS011;374;52.568;13.402;2024-01-07T08:15:48;4.90;;;3.80;;
781;SDS011;374;52.568;13.402;2024-01-07T08:18:14;4.80;;;3.20;;
781;SDS011;374;52.568;13.402;2024-01-07T08:20:39;5.63;;;3.77;;
781;SDS011;374;52.568;13.402;2024-01-07T08:23:08;3.73;;;3.30;;
781;SDS011;374;52.568;13.402;2024-01-07T08:25:36;4.57;;;3.80;;
781;SDS011;374;52.568;13.402;2024-01-07T08:28:04;4.20;;;3.40;;
781;SDS011;374;52.568;13.402;2024-01-07T08:30:30;5.00;;;4.20;;
781;SDS011;374;52.568;13.402;2024-01-07T08:32:56;6.77;;;4.77;;
781;SDS011;374;52.568;13.402;2024-01-07T08:35:21;4.57;;;4.07;;
781;SDS011;374;52.568;13.402;2024-01-07T08:37:49;4.90;;;3.97;;
781;SDS011;374;52.568;13.402;2024-01-07T08:40:15;4.20;;;3.87;;
781;SDS011;374;52.568;13.402;2024-01-07T08:42:42;4.13;;;3.60;;
781;SDS011;374;52.568;13.402;2024-01-07T08:45:07;7.30;;;4.87;;
781;SDS011;374;52.568;13.402;2024-01-07T08:47:33;4.73;;;4.13;;
781;SDS011;374;52.568;13.402;2024-01-07T08:50:00;6.30;;;4.30;;
781;SDS011;374;52.568;13.402;2024-01-07T08:52:26;5.10;;;4.60;;
781;SDS011;374;52.568;13.402;2024-01-07T08:54:52;5.10;;;4.50;;
781;SDS011;374;52.568;13.402;2024-01-07T08:57:17;6.60;;;4.07;;
781;SDS011;374;52.568;13.402;2024-01-07T08:59:45;6.03;;;4.63;;
781;SDS011;374;52.568;13.402;2024-01-07T09:02:11;6.40;;;4.83;;
781;SDS011;374;52.568;13.402;2024-01-07T09:04:36;5.97;;;4.73;;
781;SDS011;374;52.568;13.402;2024-01-07T09:07:03;5.63;;;5.07;;
781;SDS011;374;52.568;13.402;2024-01-07T09:09:28;7.30;;;5.60;;
781;SDS011;374;52.568;13.402;2024-01-07T09:11:54;9.37;;;6.53;;
781;SDS011;374;52.568;13.402;2024-01-07T09:14:21;8.10;;;6.23;;
781;SDS011;374;52.568;13.402;2024-01-07T09:16:47;7.70;;;5.63;;
781;SDS011;374;52.568;13.402;2024-01-07T09:19:12;7.60;;;5.23;;
781;SDS011;374;52.568;13.402;2024-01-07T09:21:38;8.20;;;5.80;;
781;SDS011;374;52.568;13.402;2024-01-07T09:24:03;9.50;;;6.87;;
781;SDS011;374;52.568;13.402;2024-01-07T09:26:29;9.90;;;6.10;;
781;SDS011;374;52.568;13.402;2024-01-07T09:28:55;9.50;;;6.73;;
781;SDS011;374;52.568;13.402;2024-01-07T09:31:21;6.50;;;5.40;;
781;SDS011;374;52.568;13.402;2024-01-07T09:33:46;7.83;;;5.63;;
781;SDS011;374;52.568;13.402;2024-01-07T09:36:12;8.50;;;5.80;;
781;SDS011;374;52.568;13.402;2024-01-07T09:38:37;10.27;;;6.33;;
781;SDS011;374;52.568;13.402;2024-01-07T09:41:03;8.23;;;5.77;;
781;SDS011;374;52.568;13.402;2024-01-07T09:43:29;7.60;;;5.80;;
781;SDS011;374;52.568;13.402;2024-01-07T09:45:55;7.20;;;6.33;;
781;SDS011;374;52.568;13.402;2024-01-07T09:48:22;7.37;;;5.60;;
781;SDS011;374;52.568;13.402;2024-01-07T09:50:47;9.90;;;6.57;;
781;SDS011;374;52.568;13.402;2024-01-07T09:53:15;8.90;;;7.33;;
781;SDS011;374;52.568;13.402;2024-01-07T09:55:51;13.33;;;8.67;;
781;SDS011;374;52.568;13.402;2024-01-07T09:58:21;8.77;;;6.90;;
781;SDS011;374;52.568;13.402;2024-01-07T10:00:50;9.73;;;6.60;;
781;SDS011;374;52.568;13.402;2024-01-07T10:03:19;8.67;;;6.67;;
781;SDS011;374;52.568;13.402;2024-01-07T10:05:45;7.50;;;6.70;;
781;SDS011;374;52.568;13.402;2024-01-07T10:08:10;8.97;;;5.83;;
781;SDS011;374;52.568;13.402;2024-01-07T10:10:36;7.40;;;6.40;;
781;SDS011;374;52.568;13.402;2024-01-07T10:13:02;6.70;;;5.97;;
781;SDS011;374;52.568;13.402;2024-01-07T10:15:31;8.77;;;6.70;;
781;SDS011;374;52.568;13.402;2024-01-07T10:18:03;6.70;;;5.70;;
781;SDS011;374;52.568;13.402;2024-01-07T10:20:33;12.40;;;8.10;;
781;SDS011;374;52.568;13.402;2024-01-07T10:23:02;12.77;;;7.50;;
781;SDS011;374;52.568;13.402;2024-01-07T10:25:32;9.10;;;7.43;;
781;SDS011;374;52.568;13.402;2024-01-07T10:28:01;9.60;;;7.70;;
781;SDS011;374;52.568;13.402;2024-01-07T10:30:30;13.60;;;9.13;;
781;SDS011;374;52.568;13.402;2024-01-07T10:32:59;16.50;;;10.13;;
781;SDS011;374;52.568;13.402;2024-01-07T10:35:34;9.63;;;8.63;;
781;SDS011;374;52.568;13.402;2024-01-07T10:38:02;11.00;;;7.40;;
781;SDS011;374;52.568;13.402;2024-01-07T10:40:28;8.03;;;7.03;;
781;SDS011;374;52.568;13.402;2024-01-07T10:42:55;13.10;;;7.83;;
781;SDS011;374;52.568;13.402;2024-01-07T10:45:21;8.77;;;6.87;;
781;SDS011;374;52.568;13.402;2024-01-07T10:47:48;10.23;;;7.53;;
781;SDS011;374;52.568;13.402;2024-01-07T10:50:16;7.50;;;6.67;;
781;SDS011;374;52.568;13.402;2024-01-07T10:52:42;8.67;;;7.13;;
781;SDS011;374;52.568;13.402;2024-01-07T10:55:13;8.30;;;6.83;;
781;SDS011;374;52.568;13.402;2024-01-07T10:57:43;11.20;;;7.57;;
781;SDS011;374;52.568;13.402;2024-01-07T11:00:10;10.40;;;7.60;;
781;SDS011;374;52.568;13.402;2024-01-07T11:02:51;11.07;;;7.60;;
781;SDS011;374;52.568;13.402;2024-01-07T11:05:40;9.20;;;7.17;;
781;SDS011;374;52.568;13.402;2024-01-07T11:11:09;6.90;;;6.13;;
781;SDS011;374;52.568;13.402;2024-01-07T11:13:39;9.93;;;6.60;;
781;SDS011;374;52.568;13.402;2024-01-07T11:16:06;8.90;;;5.90;;
781;SDS011;374;52.568;13.402;2024-01-07T11:18:39;9.40;;;6.53;;
781;SDS011;374;52.568;13.402;2024-01-07T11:21:10;8.97;;;6.27;;
781;SDS011;374;52.568;13.402;2024-01-07T11:23:36;7.67;;;5.60;;
781;SDS011;374;52.568;13.402;2024-01-07T11:26:08;8.83;;;6.23;;
781;SDS011;374;52.568;13.402;2024-01-07T11:28:48;7.30;;;6.17;;
781;SDS011;374;52.568;13.402;2024-01-07T11:31:19;10.27;;;6.90;;
781;SDS011;374;52.568;13.402;2024-01-07T11:33:54;9.10;;;5.90;;
781;SDS011;374;52.568;13.402;2024-01-07T11:36:26;6.60;;;5.80;;
781;SDS011;374;52.568;13.402;2024-01-07T11:38:52;9.30;;;7.37;;
781;SDS011;374;52.568;13.402;2024-01-07T11:41:25;10.23;;;6.93;;
781;SDS011;374;52.568;13.402;2024-01-07T11:44:00;7.90;;;7.10;;
781;SDS011;374;52.568;13.402;2024-01-07T11:46:33;6.73;;;5.67;;
781;SDS011;374;52.568;13.402;2024-01-07T11:48:59;7.53;;;5.63;;
781;SDS011;374;52.568;13.402;2024-01-07T11:53:51;11.97;;;9.20;;
781;SDS011;374;52.568;13.402;2024-01-07T11:56:20;8.10;;;5.80;;
781;SDS011;374;52.568;13.402;2024-01-07T11:58:53;6.73;;;6.03;;
781;SDS011;374;52.568;13.402;2024-01-07T12:01:21;6.87;;;5.77;;
781;SDS011;374;52.568;13.402;2024-01-07T12:03:46;9.60;;;6.70;;
781;SDS011;374;52.568;13.402;2024-01-07T12:06:12;7.13;;;5.37;;
781;SDS011;374;52.568;13.402;2024-01-07T12:08:45;7.57;;;6.60;;
781;SDS011;374;52.568;13.402;2024-01-07T12:11:16;6.43;;;5.50;;
781;SDS011;374;52.568;13.402;2024-01-07T12:13:43;6.50;;;5.80;;
781;SDS011;374;52.568;13.402;2024-01-07T12:16:12;10.30;;;6.37;;
781;SDS011;374;52.568;13.402;2024-01-07T12:18:38;8.33;;;5.90;;
781;SDS011;374;52.568;13.402;2024-01-07T12:21:04;5.77;;;4.93;;
781;SDS011;374;52.568;13.402;2024-01-07T12:23:36;6.33;;;5.37;;
781;SDS011;374;52.568;13.402;2024-01-07T12:26:08;6.57;;;5.17;;
781;SDS011;374;52.568;13.402;2024-01-07T12:28:35;8.10;;;5.07;;
781;SDS011;374;52.568;13.402;2024-01-07T12:31:01;7.70;;;5.67;;
781;SDS011;374;52.568;13.402;2024-01-07T12:33:28;8.40;;;5.73;;
781;SDS011;374;52.568;13.402;2024-01-07T12:35:59;9.10;;;6.00;;
781;SDS011;374;52.568;13.402;2024-01-07T12:38:25;7.10;;;5.20;;
781;SDS011;374;52.568;13.402;2024-01-07T12:40:55;6.70;;;5.20;;
781;SDS011;374;52.568;13.402;2024-01-07T12:43:24;7.30;;;5.90;;
781;SDS011;374;52.568;13.402;2024-01-07T12:45:50;8.17;;;5.40;;
781;SDS011;374;52.568;13.402;2024-01-07T12:48:16;4.40;;;4.00;;
781;SDS011;374;52.568;13.402;2024-01-07T12:50:41;5.40;;;4.90;;
781;SDS011;374;52.568;13.402;2024-01-07T12:53:07;7.40;;;4.87;;
781;SDS011;374;52.568;13.402;2024-01-07T12:55:32;6.37;;;5.33;;
781;SDS011;374;52.568;13.402;2024-01-07T12:57:58;6.20;;;4.20;;
781;SDS011;374;52.568;13.402;2024-01-07T13:00:24;6.30;;;4.97;;
781;SDS011;374;52.568;13.402;2024-01-07T13:02:51;4.67;;;4.27;;
781;SDS011;374;52.568;13.402;2024-01-07T13:05:17;7.70;;;5.03;;
781;SDS011;374;52.568;13.402;2024-01-07T13:07:42;5.17;;;4.63;;
781;SDS011;374;52.568;13.402;2024-01-07T13:10:08;7.33;;;5.00;;
781;SDS011;374;52.568;13.402;2024-01-07T13:12:34;5.50;;;5.00;;
781;SDS011;374;52.568;13.402;2024-01-07T13:15:01;7.20;;;5.03;;
781;SDS011;374;52.568;13.402;2024-01-07T13:17:26;5.63;;;4.97;;
781;SDS011;374;52.568;13.402;2024-01-07T13:19:52;5.90;;;4.77;;
781;SDS011;374;52.568;13.402;2024-01-07T13:22:18;7.50;;;6.23;;
781;SDS011;374;52.568;13.402;2024-01-07T13:24:43;6.60;;;4.90;;
781;SDS011;374;52.568;13.402;2024-01-07T13:27:09;7.40;;;5.63;;
781;SDS011;374;52.568;13.402;2024-01-07T13:29:34;7.37;;;5.10;;
781;SDS011;374;52.568;13.402;2024-01-07T13:32:00;6.57;;;5.97;;
781;SDS011;374;52.568;13.402;2024-01-07T13:34:25;6.53;;;5.13;;
781;SDS011;374;52.568;13.402;2024-01-07T13:36:51;9.17;;;5.70;;
781;SDS011;374;52.568;13.402;2024-01-07T13:39:17;8.53;;;7.23;;
781;SDS011;374;52.568;13.402;2024-01-07T13:41:42;6.20;;;5.50;;
781;SDS011;374;52.568;13.402;2024-01-07T13:44:09;6.63;;;5.07;;
781;SDS011;374;52.568;13.402;2024-01-07T13:46:42;7.00;;;4.57;;
781;SDS011;374;52.568;13.402;2024-01-07T13:49:11;5.53;;;4.83;;
781;SDS011;374;52.568;13.402;2024-01-07T13:51:40;6.43;;;5.10;;
781;SDS011;374;52.568;13.402;2024-01-07T13:54:06;4.60;;;4.20;;
781;SDS011;374;52.568;13.402;2024-01-07T13:56:34;4.27;;;3.47;;
781;SDS011;374;52.568;13.402;2024-01-07T13:59:01;4.20;;;3.60;;
781;SDS011;374;52.568;13.402;2024-01-07T14:01:30;5.10;;;3.73;;
781;SDS011;374;52.568;13.402;2024-01-07T14:03:56;5.43;;;3.83;;
781;SDS011;374;52.568;13.402;2024-01-07T14:06:21;3.87;;;3.40;;
781;SDS011;374;52.568;13.402;2024-01-07T14:08:47;4.13;;;3.27;;
781;SDS011;374;52.568;13.402;2024-01-07T14:11:12;9.47;;;3.90;;
781;SDS011;374;52.568;13.402;2024-01-07T14:13:38;5.40;;;3.57;;
781;SDS011;374;52.568;13.402;2024-01-07T14:16:03;4.43;;;3.87;;
781;SDS011;374;52.568;13.402;2024-01-07T14:18:29;4.83;;;3.50;;
781;SDS011;374;52.568;13.402;2024-01-07T14:20:55;4.07;;;3.27;;
781;SDS011;374;52.568;13.402;2024-01-07T14:23:20;9.47;;;6.43;;
781;SDS011;374;52.568;13.402;2024-01-07T14:25:46;5.17;;;4.60;;
781;SDS011;374;52.568;13.402;2024-01-07T14:28:11;4.80;;;4.30;;
781;SDS011;374;52.568;13.402;2024-01-07T14:30:37;5.30;;;4.80;;
781;SDS011;374;52.568;13.402;2024-01-07T14:33:03;4.67;;;4.00;;
781;SDS011;374;52.568;13.402;2024-01-07T14:35:29;6.17;;;5.20;;
781;SDS011;374;52.568;13.402;2024-01-07T14:37:55;10.80;;;6.57;;
781;SDS011;374;52.568;13.402;2024-01-07T14:40:23;5.10;;;4.40;;
781;SDS011;374;52.568;13.402;2024-01-07T14:42:48;5.20;;;4.30;;
781;SDS011;374;52.568;13.402;2024-01-07T14:45:14;4.43;;;4.00;;
781;SDS011;374;52.568;13.402;2024-01-07T14:47:39;4.80;;;3.80;;
781;SDS011;374;52.568;13.402;2024-01-07T14:50:05;4.73;;;4.00;;
781;SDS011;374;52.568;13.402;2024-01-07T14:52:32;3.90;;;3.60;;
781;SDS011;374;52.568;13.402;2024-01-07T14:54:57;5.40;;;3.70;;
781;SDS011;374;52.568;13.402;2024-01-07T14:57:23;6.17;;;4.20;;
781;SDS011;374;52.568;13.402;2024-01-07T14:59:48;4.90;;;3.83;;
781;SDS011;374;52.568;13.402;2024-01-07T15:02:14;5.53;;;3.80;;
781;SDS011;374;52.568;13.402;2024-01-07T15:04:39;6.47;;;4.60;;
781;SDS011;374;52.568;13.402;2024-01-07T15:07:05;6.30;;;3.87;;
781;SDS011;374;52.568;13.402;2024-01-07T15:09:30;11.47;;;3.70;;
781;SDS011;374;52.568;13.402;2024-01-07T15:11:56;5.03;;;3.50;;
781;SDS011;374;52.568;13.402;2024-01-07T15:14:22;3.90;;;3.50;;
781;SDS011;374;52.568;13.402;2024-01-07T15:16:48;5.13;;;3.70;;
781;SDS011;374;52.568;13.402;2024-01-07T15:19:18;4.80;;;4.10;;
781;SDS011;374;52.568;13.402;2024-01-07T15:21:44;5.70;;;4.17;;
781;SDS011;374;52.568;13.402;2024-01-07T15:24:10;6.60;;;4.33;;
781;SDS011;374;52.568;13.402;2024-01-07T15:26:36;5.83;;;4.40;;
781;SDS011;374;52.568;13.402;2024-01-07T15:29:03;7.80;;;4.33;;
781;SDS011;374;52.568;13.402;2024-01-07T15:31:29;4.47;;;4.03;;